KPOE

Polk AAF Airport

Fort Polk, Louisiana, USA
METAR KPOE 110158Z AUTO 34004KT 10SM CLR 03/01 A3037 RMK AO2 SLP289 T00340008
Observed Flight Rules
Dec-11 @ 01:58 UTC (28 minutes ago) Visual Flight Rules
Wind Visibility Clouds
340° at 4 knots 10 miles
  • Clear skies
Temperatures Readings
Current 3°C / 37°F
Dewpoint 1°C / 34°F
Humidity 87%
Altimeter 30.37" Hg
Pressure 1028.9 hPa
Elevation 101
METAR KPOE 110158Z AUTO 34004KT 10SM CLR 03/01 A3037 RMK AO2 SLP289 T00340008
Observed Flight Rules
Dec-11 @ 01:58 UTC
(28 minutes ago)
VFR
Wind Visibility
340° at 4 knots 10 miles
Clouds
  • Clear skies
Temperature Dewpoint
3°C / 37°F 1°C / 34°F
Humidity Altimeter Pressure
87% 30.37" Hg 1028.9 hPa